sensor_id;sensor_type;location;lat;lon;timestamp;temperature;humidity
32394;DHT22;18853;45.426;9.206;2023-11-21T00:02:12;15.30;56.30
32394;DHT22;18853;45.426;9.206;2023-11-21T00:04:37;15.40;56.20
32394;DHT22;18853;45.426;9.206;2023-11-21T00:07:03;15.30;56.20
32394;DHT22;18853;45.426;9.206;2023-11-21T00:09:29;15.30;56.20
32394;DHT22;18853;45.426;9.206;2023-11-21T00:11:54;15.40;56.40
32394;DHT22;18853;45.426;9.206;2023-11-21T00:14:20;15.40;56.40
32394;DHT22;18853;45.426;9.206;2023-11-21T00:16:45;15.40;56.30
32394;DHT22;18853;45.426;9.206;2023-11-21T00:19:11;15.40;56.20
32394;DHT22;18853;45.426;9.206;2023-11-21T00:21:37;15.40;56.30
32394;DHT22;18853;45.426;9.206;2023-11-21T00:24:03;15.40;56.20
32394;DHT22;18853;45.426;9.206;2023-11-21T00:26:29;15.40;56.30
32394;DHT22;18853;45.426;9.206;2023-11-21T00:28:56;15.30;56.20
32394;DHT22;18853;45.426;9.206;2023-11-21T00:31:22;15.30;56.30
32394;DHT22;18853;45.426;9.206;2023-11-21T00:33:47;15.30;56.30
32394;DHT22;18853;45.426;9.206;2023-11-21T00:36:13;15.30;56.30
32394;DHT22;18853;45.426;9.206;2023-11-21T00:38:38;15.30;56.30
32394;DHT22;18853;45.426;9.206;2023-11-21T00:41:06;15.20;56.40
32394;DHT22;18853;45.426;9.206;2023-11-21T00:43:32;15.30;56.50
32394;DHT22;18853;45.426;9.206;2023-11-21T00:45:59;15.20;56.40
32394;DHT22;18853;45.426;9.206;2023-11-21T00:48:24;15.20;56.40
32394;DHT22;18853;45.426;9.206;2023-11-21T00:50:50;15.30;56.50
32394;DHT22;18853;45.426;9.206;2023-11-21T00:53:16;15.30;56.50
32394;DHT22;18853;45.426;9.206;2023-11-21T00:55:41;15.30;56.50
32394;DHT22;18853;45.426;9.206;2023-11-21T00:58:07;15.30;57.00
32394;DHT22;18853;45.426;9.206;2023-11-21T01:00:33;15.30;56.70
32394;DHT22;18853;45.426;9.206;2023-11-21T01:02:59;15.30;56.80
32394;DHT22;18853;45.426;9.206;2023-11-21T01:05:25;15.30;56.90
32394;DHT22;18853;45.426;9.206;2023-11-21T01:07:51;15.30;56.90
32394;DHT22;18853;45.426;9.206;2023-11-21T01:10:16;15.30;56.90
32394;DHT22;18853;45.426;9.206;2023-11-21T01:12:43;15.30;57.00
32394;DHT22;18853;45.426;9.206;2023-11-21T01:15:09;15.30;57.00
32394;DHT22;18853;45.426;9.206;2023-11-21T01:17:37;15.30;57.00
32394;DHT22;18853;45.426;9.206;2023-11-21T01:20:04;15.30;57.00
32394;DHT22;18853;45.426;9.206;2023-11-21T01:22:37;15.30;57.00
32394;DHT22;18853;45.426;9.206;2023-11-21T01:25:03;15.20;57.10
32394;DHT22;18853;45.426;9.206;2023-11-21T01:27:30;15.20;57.20
32394;DHT22;18853;45.426;9.206;2023-11-21T01:29:56;15.20;57.30
32394;DHT22;18853;45.426;9.206;2023-11-21T01:32:21;15.20;57.30
32394;DHT22;18853;45.426;9.206;2023-11-21T01:34:48;15.20;57.90
32394;DHT22;18853;45.426;9.206;2023-11-21T01:37:13;15.30;57.30
32394;DHT22;18853;45.426;9.206;2023-11-21T01:39:39;15.30;57.10
32394;DHT22;18853;45.426;9.206;2023-11-21T01:42:05;15.40;57.10
32394;DHT22;18853;45.426;9.206;2023-11-21T01:44:31;15.40;57.20
32394;DHT22;18853;45.426;9.206;2023-11-21T01:46:57;15.40;57.20
32394;DHT22;18853;45.426;9.206;2023-11-21T01:49:23;15.40;57.20
32394;DHT22;18853;45.426;9.206;2023-11-21T01:51:49;15.40;57.00
32394;DHT22;18853;45.426;9.206;2023-11-21T01:54:17;15.40;57.10
32394;DHT22;18853;45.426;9.206;2023-11-21T01:56:45;15.30;57.20
32394;DHT22;18853;45.426;9.206;2023-11-21T01:59:14;15.40;57.30
32394;DHT22;18853;45.426;9.206;2023-11-21T02:01:43;15.40;57.30
32394;DHT22;18853;45.426;9.206;2023-11-21T02:04:09;15.40;57.10
32394;DHT22;18853;45.426;9.206;2023-11-21T02:06:35;15.40;57.00
32394;DHT22;18853;45.426;9.206;2023-11-21T02:09:01;15.50;57.10
32394;DHT22;18853;45.426;9.206;2023-11-21T02:11:26;15.40;56.90
32394;DHT22;18853;45.426;9.206;2023-11-21T02:13:53;15.50;56.90
32394;DHT22;18853;45.426;9.206;2023-11-21T02:16:19;15.50;57.00
32394;DHT22;18853;45.426;9.206;2023-11-21T02:18:47;15.40;56.80
32394;DHT22;18853;45.426;9.206;2023-11-21T02:21:14;15.40;56.80
32394;DHT22;18853;45.426;9.206;2023-11-21T02:23:39;15.30;57.00
32394;DHT22;18853;45.426;9.206;2023-11-21T02:26:10;15.30;57.00
32394;DHT22;18853;45.426;9.206;2023-11-21T02:28:36;15.30;57.10
32394;DHT22;18853;45.426;9.206;2023-11-21T02:31:01;15.30;57.00
32394;DHT22;18853;45.426;9.206;2023-11-21T02:33:28;15.30;57.00
32394;DHT22;18853;45.426;9.206;2023-11-21T02:35:54;15.40;57.10
32394;DHT22;18853;45.426;9.206;2023-11-21T02:38:21;15.40;56.90
32394;DHT22;18853;45.426;9.206;2023-11-21T02:40:47;15.40;56.90
32394;DHT22;18853;45.426;9.206;2023-11-21T02:43:14;15.40;56.80
32394;DHT22;18853;45.426;9.206;2023-11-21T02:45:40;15.40;56.70
32394;DHT22;18853;45.426;9.206;2023-11-21T02:48:07;15.40;56.70
32394;DHT22;18853;45.426;9.206;2023-11-21T02:50:32;15.40;56.60
32394;DHT22;18853;45.426;9.206;2023-11-21T02:52:58;15.40;56.70
32394;DHT22;18853;45.426;9.206;2023-11-21T02:55:26;15.30;56.50
32394;DHT22;18853;45.426;9.206;2023-11-21T02:57:52;15.30;56.60
32394;DHT22;18853;45.426;9.206;2023-11-21T03:00:17;15.30;56.50
32394;DHT22;18853;45.426;9.206;2023-11-21T03:02:43;15.30;56.40
32394;DHT22;18853;45.426;9.206;2023-11-21T03:05:09;15.40;56.50
32394;DHT22;18853;45.426;9.206;2023-11-21T03:07:37;15.40;56.40
32394;DHT22;18853;45.426;9.206;2023-11-21T03:10:03;15.40;56.40
32394;DHT22;18853;45.426;9.206;2023-11-21T03:12:29;15.50;56.40
32394;DHT22;18853;45.426;9.206;2023-11-21T03:14:55;15.40;56.30
32394;DHT22;18853;45.426;9.206;2023-11-21T03:17:21;15.40;56.30
32394;DHT22;18853;45.426;9.206;2023-11-21T03:19:47;15.30;56.40
32394;DHT22;18853;45.426;9.206;2023-11-21T03:22:12;15.30;56.30
32394;DHT22;18853;45.426;9.206;2023-11-21T03:24:38;15.30;56.40
32394;DHT22;18853;45.426;9.206;2023-11-21T03:27:04;15.30;56.50
32394;DHT22;18853;45.426;9.206;2023-11-21T03:29:30;15.30;56.60
32394;DHT22;18853;45.426;9.206;2023-11-21T03:31:56;15.40;56.70
32394;DHT22;18853;45.426;9.206;2023-11-21T03:34:26;15.40;56.60
32394;DHT22;18853;45.426;9.206;2023-11-21T03:36:52;15.40;56.70
32394;DHT22;18853;45.426;9.206;2023-11-21T03:39:19;15.40;56.80
32394;DHT22;18853;45.426;9.206;2023-11-21T03:41:45;15.40;56.90
32394;DHT22;18853;45.426;9.206;2023-11-21T03:44:11;15.40;57.00
32394;DHT22;18853;45.426;9.206;2023-11-21T03:46:36;15.30;57.30
32394;DHT22;18853;45.426;9.206;2023-11-21T03:49:02;15.30;57.40
32394;DHT22;18853;45.426;9.206;2023-11-21T03:51:27;15.40;57.50
32394;DHT22;18853;45.426;9.206;2023-11-21T03:53:53;15.50;57.40
32394;DHT22;18853;45.426;9.206;2023-11-21T03:56:19;15.50;57.50
32394;DHT22;18853;45.426;9.206;2023-11-21T03:58:47;15.50;57.50
32394;DHT22;18853;45.426;9.206;2023-11-21T04:01:24;15.40;57.70
32394;DHT22;18853;45.426;9.206;2023-11-21T04:03:50;15.50;57.90
32394;DHT22;18853;45.426;9.206;2023-11-21T04:06:17;15.40;57.90
32394;DHT22;18853;45.426;9.206;2023-11-21T04:08:44;15.50;57.90
32394;DHT22;18853;45.426;9.206;2023-11-21T04:11:10;15.50;57.90
32394;DHT22;18853;45.426;9.206;2023-11-21T04:13:38;15.50;57.90
32394;DHT22;18853;45.426;9.206;2023-11-21T04:16:05;15.50;58.10
32394;DHT22;18853;45.426;9.206;2023-11-21T04:18:30;15.50;58.20
32394;DHT22;18853;45.426;9.206;2023-11-21T04:20:56;15.40;58.30
32394;DHT22;18853;45.426;9.206;2023-11-21T04:23:22;15.40;58.50
32394;DHT22;18853;45.426;9.206;2023-11-21T04:25:47;15.30;58.50
32394;DHT22;18853;45.426;9.206;2023-11-21T04:28:13;15.30;58.60
32394;DHT22;18853;45.426;9.206;2023-11-21T04:30:39;15.30;59.30
32394;DHT22;18853;45.426;9.206;2023-11-21T04:33:05;15.30;58.70
32394;DHT22;18853;45.426;9.206;2023-11-21T04:35:30;15.40;58.60
32394;DHT22;18853;45.426;9.206;2023-11-21T04:37:56;15.40;58.50
32394;DHT22;18853;45.426;9.206;2023-11-21T04:40:22;15.50;58.50
32394;DHT22;18853;45.426;9.206;2023-11-21T04:42:48;15.50;58.50
32394;DHT22;18853;45.426;9.206;2023-11-21T04:45:14;15.60;58.50
32394;DHT22;18853;45.426;9.206;2023-11-21T04:47:39;15.50;58.50
32394;DHT22;18853;45.426;9.206;2023-11-21T04:50:05;15.50;58.40
32394;DHT22;18853;45.426;9.206;2023-11-21T04:52:31;15.50;58.40
32394;DHT22;18853;45.426;9.206;2023-11-21T04:54:58;15.60;58.40
32394;DHT22;18853;45.426;9.206;2023-11-21T04:57:26;15.60;58.40
32394;DHT22;18853;45.426;9.206;2023-11-21T04:59:53;15.60;58.50
32394;DHT22;18853;45.426;9.206;2023-11-21T05:02:19;15.60;58.40
32394;DHT22;18853;45.426;9.206;2023-11-21T05:04:46;15.60;58.40
32394;DHT22;18853;45.426;9.206;2023-11-21T05:07:12;15.60;58.50
32394;DHT22;18853;45.426;9.206;2023-11-21T05:09:44;15.60;58.50
32394;DHT22;18853;45.426;9.206;2023-11-21T05:12:14;15.60;58.50
32394;DHT22;18853;45.426;9.206;2023-11-21T05:14:40;15.60;58.50
32394;DHT22;18853;45.426;9.206;2023-11-21T05:17:07;15.60;58.50
32394;DHT22;18853;45.426;9.206;2023-11-21T05:19:33;15.60;58.50
32394;DHT22;18853;45.426;9.206;2023-11-21T05:22:00;15.60;58.50
32394;DHT22;18853;45.426;9.206;2023-11-21T05:24:26;15.60;58.60
32394;DHT22;18853;45.426;9.206;2023-11-21T05:26:51;15.60;58.60
32394;DHT22;18853;45.426;9.206;2023-11-21T05:29:18;15.70;58.60
32394;DHT22;18853;45.426;9.206;2023-11-21T05:31:43;15.60;58.60
32394;DHT22;18853;45.426;9.206;2023-11-21T05:34:09;15.60;58.60
32394;DHT22;18853;45.426;9.206;2023-11-21T05:36:34;15.70;58.70
32394;DHT22;18853;45.426;9.206;2023-11-21T05:39:00;15.60;58.70
32394;DHT22;18853;45.426;9.206;2023-11-21T05:41:26;15.60;58.80
32394;DHT22;18853;45.426;9.206;2023-11-21T05:43:53;15.60;58.80
32394;DHT22;18853;45.426;9.206;2023-11-21T05:46:29;15.60;58.80
32394;DHT22;18853;45.426;9.206;2023-11-21T05:48:55;15.60;58.80
32394;DHT22;18853;45.426;9.206;2023-11-21T05:51:20;15.60;58.80
32394;DHT22;18853;45.426;9.206;2023-11-21T05:53:46;15.60;58.80
32394;DHT22;18853;45.426;9.206;2023-11-21T05:56:12;15.60;58.80
32394;DHT22;18853;45.426;9.206;2023-11-21T05:58:39;15.60;58.80
32394;DHT22;18853;45.426;9.206;2023-11-21T06:01:05;15.60;58.80
32394;DHT22;18853;45.426;9.206;2023-11-21T06:03:38;15.70;58.90
32394;DHT22;18853;45.426;9.206;2023-11-21T06:06:04;15.60;58.80
32394;DHT22;18853;45.426;9.206;2023-11-21T06:08:30;15.70;58.90
32394;DHT22;18853;45.426;9.206;2023-11-21T06:10:55;15.70;59.10
32394;DHT22;18853;45.426;9.206;2023-11-21T06:13:21;15.70;58.90
32394;DHT22;18853;45.426;9.206;2023-11-21T06:15:50;15.70;58.90
32394;DHT22;18853;45.426;9.206;2023-11-21T06:18:16;15.70;58.90
32394;DHT22;18853;45.426;9.206;2023-11-21T06:20:47;15.70;58.90
32394;DHT22;18853;45.426;9.206;2023-11-21T06:23:13;15.70;58.90
32394;DHT22;18853;45.426;9.206;2023-11-21T06:25:39;15.70;58.80
32394;DHT22;18853;45.426;9.206;2023-11-21T06:28:06;15.70;58.90
32394;DHT22;18853;45.426;9.206;2023-11-21T06:30:31;15.70;58.80
32394;DHT22;18853;45.426;9.206;2023-11-21T06:32:57;15.70;58.80
32394;DHT22;18853;45.426;9.206;2023-11-21T06:35:23;15.70;58.80
32394;DHT22;18853;45.426;9.206;2023-11-21T06:37:48;15.70;58.60
32394;DHT22;18853;45.426;9.206;2023-11-21T06:40:14;15.80;58.60
32394;DHT22;18853;45.426;9.206;2023-11-21T06:42:40;15.80;58.40
32394;DHT22;18853;45.426;9.206;2023-11-21T06:45:07;15.80;58.30
32394;DHT22;18853;45.426;9.206;2023-11-21T06:47:33;15.90;58.30
32394;DHT22;18853;45.426;9.206;2023-11-21T06:49:59;15.90;58.20
32394;DHT22;18853;45.426;9.206;2023-11-21T06:52:25;15.80;58.10
32394;DHT22;18853;45.426;9.206;2023-11-21T06:54:51;15.90;58.00
32394;DHT22;18853;45.426;9.206;2023-11-21T06:57:17;15.90;58.00
32394;DHT22;18853;45.426;9.206;2023-11-21T06:59:43;15.90;58.00
32394;DHT22;18853;45.426;9.206;2023-11-21T07:02:10;15.80;58.00
32394;DHT22;18853;45.426;9.206;2023-11-21T07:04:36;15.80;58.10
32394;DHT22;18853;45.426;9.206;2023-11-21T07:07:06;15.80;58.20
32394;DHT22;18853;45.426;9.206;2023-11-21T07:09:32;15.80;58.30
32394;DHT22;18853;45.426;9.206;2023-11-21T07:11:58;15.80;58.30
32394;DHT22;18853;45.426;9.206;2023-11-21T07:14:23;15.70;58.30
32394;DHT22;18853;45.426;9.206;2023-11-21T07:16:49;15.80;58.30
32394;DHT22;18853;45.426;9.206;2023-11-21T07:19:14;15.80;58.10
32394;DHT22;18853;45.426;9.206;2023-11-21T07:21:40;15.90;58.20
32394;DHT22;18853;45.426;9.206;2023-11-21T07:24:07;15.90;58.10
32394;DHT22;18853;45.426;9.206;2023-11-21T07:26:34;15.90;58.10
32394;DHT22;18853;45.426;9.206;2023-11-21T07:29:03;15.90;58.10
32394;DHT22;18853;45.426;9.206;2023-11-21T07:31:30;15.80;58.20
32394;DHT22;18853;45.426;9.206;2023-11-21T07:33:56;15.80;58.40
32394;DHT22;18853;45.426;9.206;2023-11-21T07:36:23;15.80;58.40
32394;DHT22;18853;45.426;9.206;2023-11-21T07:38:49;15.80;58.50
32394;DHT22;18853;45.426;9.206;2023-11-21T07:41:15;15.80;58.40
32394;DHT22;18853;45.426;9.206;2023-11-21T07:43:43;15.80;58.40
32394;DHT22;18853;45.426;9.206;2023-11-21T07:46:09;15.90;58.40
32394;DHT22;18853;45.426;9.206;2023-11-21T07:48:35;15.80;58.40
32394;DHT22;18853;45.426;9.206;2023-11-21T07:51:02;15.80;58.40
32394;DHT22;18853;45.426;9.206;2023-11-21T07:53:29;15.80;58.40
32394;DHT22;18853;45.426;9.206;2023-11-21T07:55:58;15.80;58.50
32394;DHT22;18853;45.426;9.206;2023-11-21T07:58:27;15.80;58.50
32394;DHT22;18853;45.426;9.206;2023-11-21T08:00:53;15.80;58.60
32394;DHT22;18853;45.426;9.206;2023-11-21T08:03:19;15.80;58.40
32394;DHT22;18853;45.426;9.206;2023-11-21T08:05:44;15.80;58.30
32394;DHT22;18853;45.426;9.206;2023-11-21T08:08:10;15.90;58.30
32394;DHT22;18853;45.426;9.206;2023-11-21T08:10:36;15.90;58.20
32394;DHT22;18853;45.426;9.206;2023-11-21T08:13:03;16.00;58.20
32394;DHT22;18853;45.426;9.206;2023-11-21T08:15:29;16.00;58.10
32394;DHT22;18853;45.426;9.206;2023-11-21T08:17:55;16.00;58.10
32394;DHT22;18853;45.426;9.206;2023-11-21T08:20:20;16.00;57.80
32394;DHT22;18853;45.426;9.206;2023-11-21T08:22:47;16.00;57.90
32394;DHT22;18853;45.426;9.206;2023-11-21T08:25:13;16.10;57.70
32394;DHT22;18853;45.426;9.206;2023-11-21T08:27:39;16.10;57.60
32394;DHT22;18853;45.426;9.206;2023-11-21T08:30:05;16.10;57.50
32394;DHT22;18853;45.426;9.206;2023-11-21T08:32:31;16.10;58.00
32394;DHT22;18853;45.426;9.206;2023-11-21T08:34:58;16.10;57.50
32394;DHT22;18853;45.426;9.206;2023-11-21T08:37:24;16.10;57.50
32394;DHT22;18853;45.426;9.206;2023-11-21T08:39:52;16.10;57.40
32394;DHT22;18853;45.426;9.206;2023-11-21T08:42:19;16.10;57.50
32394;DHT22;18853;45.426;9.206;2023-11-21T08:44:45;16.10;57.40
32394;DHT22;18853;45.426;9.206;2023-11-21T08:47:11;16.10;57.20
32394;DHT22;18853;45.426;9.206;2023-11-21T08:49:37;16.10;57.30
32394;DHT22;18853;45.426;9.206;2023-11-21T08:52:03;16.10;57.30
32394;DHT22;18853;45.426;9.206;2023-11-21T08:54:30;16.10;57.50
32394;DHT22;18853;45.426;9.206;2023-11-21T08:56:56;16.10;57.30
32394;DHT22;18853;45.426;9.206;2023-11-21T08:59:24;16.10;57.30
32394;DHT22;18853;45.426;9.206;2023-11-21T09:01:50;16.10;57.20
32394;DHT22;18853;45.426;9.206;2023-11-21T09:04:16;16.20;57.10
32394;DHT22;18853;45.426;9.206;2023-11-21T09:06:41;16.20;56.80
32394;DHT22;18853;45.426;9.206;2023-11-21T09:09:07;16.20;56.80
32394;DHT22;18853;45.426;9.206;2023-11-21T09:11:34;16.20;56.80
32394;DHT22;18853;45.426;9.206;2023-11-21T09:14:00;16.20;56.70
32394;DHT22;18853;45.426;9.206;2023-11-21T09:16:26;16.20;56.60
32394;DHT22;18853;45.426;9.206;2023-11-21T09:18:51;16.20;56.60
32394;DHT22;18853;45.426;9.206;2023-11-21T09:21:17;16.20;56.60
32394;DHT22;18853;45.426;9.206;2023-11-21T09:23:48;16.20;56.70
32394;DHT22;18853;45.426;9.206;2023-11-21T09:26:14;16.20;56.70
32394;DHT22;18853;45.426;9.206;2023-11-21T09:28:43;16.10;56.70
32394;DHT22;18853;45.426;9.206;2023-11-21T09:31:11;16.20;56.70
32394;DHT22;18853;45.426;9.206;2023-11-21T09:33:37;16.20;56.70
32394;DHT22;18853;45.426;9.206;2023-11-21T09:36:04;16.20;56.70
32394;DHT22;18853;45.426;9.206;2023-11-21T09:38:30;16.20;56.70
32394;DHT22;18853;45.426;9.206;2023-11-21T09:40:56;16.30;56.70
32394;DHT22;18853;45.426;9.206;2023-11-21T09:43:25;16.30;56.60
32394;DHT22;18853;45.426;9.206;2023-11-21T09:46:05;16.30;56.40
32394;DHT22;18853;45.426;9.206;2023-11-21T09:48:32;16.40;56.50
32394;DHT22;18853;45.426;9.206;2023-11-21T09:50:59;16.40;56.50
32394;DHT22;18853;45.426;9.206;2023-11-21T09:53:27;16.40;56.50
32394;DHT22;18853;45.426;9.206;2023-11-21T09:55:55;16.40;56.40
32394;DHT22;18853;45.426;9.206;2023-11-21T09:58:21;16.40;56.40
32394;DHT22;18853;45.426;9.206;2023-11-21T10:00:50;16.40;56.40
32394;DHT22;18853;45.426;9.206;2023-11-21T10:03:18;16.40;56.40
32394;DHT22;18853;45.426;9.206;2023-11-21T10:05:44;16.40;56.50
32394;DHT22;18853;45.426;9.206;2023-11-21T10:08:11;16.40;56.40
32394;DHT22;18853;45.426;9.206;2023-11-21T10:10:42;16.40;56.40
32394;DHT22;18853;45.426;9.206;2023-11-21T10:13:12;16.40;56.40
32394;DHT22;18853;45.426;9.206;2023-11-21T10:15:38;16.40;56.40
32394;DHT22;18853;45.426;9.206;2023-11-21T10:18:05;16.50;56.40
32394;DHT22;18853;45.426;9.206;2023-11-21T10:20:32;16.50;56.50
32394;DHT22;18853;45.426;9.206;2023-11-21T10:23:03;16.60;56.50
32394;DHT22;18853;45.426;9.206;2023-11-21T10:25:30;16.60;56.40
32394;DHT22;18853;45.426;9.206;2023-11-21T10:28:03;16.70;56.40
32394;DHT22;18853;45.426;9.206;2023-11-21T10:30:33;16.70;56.30
32394;DHT22;18853;45.426;9.206;2023-11-21T10:32:59;16.70;56.30
32394;DHT22;18853;45.426;9.206;2023-11-21T10:38:07;16.70;55.90
32394;DHT22;18853;45.426;9.206;2023-11-21T10:40:37;16.70;56.00
32394;DHT22;18853;45.426;9.206;2023-11-21T10:43:11;16.70;55.90
32394;DHT22;18853;45.426;9.206;2023-11-21T10:45:40;16.70;55.80
32394;DHT22;18853;45.426;9.206;2023-11-21T10:48:07;16.60;56.00
32394;DHT22;18853;45.426;9.206;2023-11-21T10:50:37;16.60;55.80
32394;DHT22;18853;45.426;9.206;2023-11-21T10:53:05;16.70;55.60
32394;DHT22;18853;45.426;9.206;2023-11-21T10:55:32;16.70;55.40
32394;DHT22;18853;45.426;9.206;2023-11-21T10:58:04;16.70;55.20
32394;DHT22;18853;45.426;9.206;2023-11-21T11:00:32;16.80;55.10
32394;DHT22;18853;45.426;9.206;2023-11-21T11:02:59;16.70;55.30
32394;DHT22;18853;45.426;9.206;2023-11-21T11:05:27;16.70;55.40
32394;DHT22;18853;45.426;9.206;2023-11-21T11:08:05;16.70;55.40
32394;DHT22;18853;45.426;9.206;2023-11-21T11:10:31;16.80;55.40
32394;DHT22;18853;45.426;9.206;2023-11-21T11:12:58;16.70;55.40
32394;DHT22;18853;45.426;9.206;2023-11-21T11:15:27;16.70;55.40
32394;DHT22;18853;45.426;9.206;2023-11-21T11:17:54;16.80;55.40
32394;DHT22;18853;45.426;9.206;2023-11-21T11:20:25;16.80;55.30
32394;DHT22;18853;45.426;9.206;2023-11-21T11:23:23;16.80;55.20
32394;DHT22;18853;45.426;9.206;2023-11-21T11:29:10;16.80;54.90
32394;DHT22;18853;45.426;9.206;2023-11-21T11:34:20;16.90;54.90
32394;DHT22;18853;45.426;9.206;2023-11-21T11:36:54;17.00;55.00
32394;DHT22;18853;45.426;9.206;2023-11-21T11:39:43;17.10;54.90
32394;DHT22;18853;45.426;9.206;2023-11-21T11:42:13;17.20;54.70
32394;DHT22;18853;45.426;9.206;2023-11-21T11:47:31;17.30;55.00
32394;DHT22;18853;45.426;9.206;2023-11-21T11:52:38;17.20;55.00
32394;DHT22;18853;45.426;9.206;2023-11-21T11:55:07;17.30;55.00
32394;DHT22;18853;45.426;9.206;2023-11-21T11:57:35;17.30;55.10
32394;DHT22;18853;45.426;9.206;2023-11-21T12:00:12;17.40;55.00
32394;DHT22;18853;45.426;9.206;2023-11-21T12:02:42;17.60;55.40
32394;DHT22;18853;45.426;9.206;2023-11-21T12:05:20;17.70;54.50
32394;DHT22;18853;45.426;9.206;2023-11-21T12:07:54;17.80;54.10
32394;DHT22;18853;45.426;9.206;2023-11-21T12:10:25;17.90;53.70
32394;DHT22;18853;45.426;9.206;2023-11-21T12:12:58;18.00;53.60
32394;DHT22;18853;45.426;9.206;2023-11-21T12:15:25;18.00;53.40
32394;DHT22;18853;45.426;9.206;2023-11-21T12:17:51;18.10;53.30
32394;DHT22;18853;45.426;9.206;2023-11-21T12:20:21;18.10;53.10
32394;DHT22;18853;45.426;9.206;2023-11-21T12:22:54;18.30;52.90
32394;DHT22;18853;45.426;9.206;2023-11-21T12:25:22;18.30;52.70
32394;DHT22;18853;45.426;9.206;2023-11-21T12:27:49;18.40;52.40
32394;DHT22;18853;45.426;9.206;2023-11-21T12:30:16;18.50;51.90
32394;DHT22;18853;45.426;9.206;2023-11-21T12:32:44;18.50;52.50
32394;DHT22;18853;45.426;9.206;2023-11-21T12:35:12;18.60;51.80
32394;DHT22;18853;45.426;9.206;2023-11-21T12:37:39;18.70;51.80
32394;DHT22;18853;45.426;9.206;2023-11-21T12:40:09;18.80;51.40
32394;DHT22;18853;45.426;9.206;2023-11-21T12:42:41;18.90;51.10
32394;DHT22;18853;45.426;9.206;2023-11-21T12:47:44;19.00;50.50
32394;DHT22;18853;45.426;9.206;2023-11-21T12:50:11;19.00;50.70
32394;DHT22;18853;45.426;9.206;2023-11-21T12:52:41;19.00;50.60
32394;DHT22;18853;45.426;9.206;2023-11-21T12:55:09;19.10;50.50
32394;DHT22;18853;45.426;9.206;2023-11-21T12:57:35;19.10;50.30
32394;DHT22;18853;45.426;9.206;2023-11-21T13:00:04;19.20;50.20
32394;DHT22;18853;45.426;9.206;2023-11-21T13:02:37;19.30;50.10
32394;DHT22;18853;45.426;9.206;2023-11-21T13:05:04;19.50;49.90
32394;DHT22;18853;45.426;9.206;2023-11-21T13:07:44;19.50;49.60
32394;DHT22;18853;45.426;9.206;2023-11-21T13:10:13;19.60;49.20
32394;DHT22;18853;45.426;9.206;2023-11-21T13:12:47;19.60;49.30
32394;DHT22;18853;45.426;9.206;2023-11-21T13:15:16;19.70;48.90
32394;DHT22;18853;45.426;9.206;2023-11-21T13:17:45;19.70;48.90
32394;DHT22;18853;45.426;9.206;2023-11-21T13:20:11;19.80;49.10
32394;DHT22;18853;45.426;9.206;2023-11-21T13:22:50;19.90;48.90
32394;DHT22;18853;45.426;9.206;2023-11-21T13:25:21;20.00;48.10
32394;DHT22;18853;45.426;9.206;2023-11-21T13:27:47;20.00;48.30
32394;DHT22;18853;45.426;9.206;2023-11-21T13:30:14;20.20;48.20
32394;DHT22;18853;45.426;9.206;2023-11-21T13:32:48;20.30;47.80
32394;DHT22;18853;45.426;9.206;2023-11-21T13:35:18;20.40;47.60
32394;DHT22;18853;45.426;9.206;2023-11-21T13:37:48;20.60;47.50
32394;DHT22;18853;45.426;9.206;2023-11-21T13:40:15;20.70;47.20
32394;DHT22;18853;45.426;9.206;2023-11-21T13:42:45;20.90;47.20
32394;DHT22;18853;45.426;9.206;2023-11-21T13:45:11;21.00;47.00
32394;DHT22;18853;45.426;9.206;2023-11-21T13:47:38;21.10;46.50
32394;DHT22;18853;45.426;9.206;2023-11-21T13:50:05;21.10;46.30
32394;DHT22;18853;45.426;9.206;2023-11-21T13:52:42;21.00;46.10
32394;DHT22;18853;45.426;9.206;2023-11-21T13:55:10;21.00;46.10
32394;DHT22;18853;45.426;9.206;2023-11-21T13:57:41;21.10;46.00
32394;DHT22;18853;45.426;9.206;2023-11-21T14:00:08;21.20;46.00
32394;DHT22;18853;45.426;9.206;2023-11-21T14:02:51;21.30;45.80
32394;DHT22;18853;45.426;9.206;2023-11-21T14:05:17;21.40;45.80
32394;DHT22;18853;45.426;9.206;2023-11-21T14:07:55;21.40;45.50
32394;DHT22;18853;45.426;9.206;2023-11-21T14:10:22;21.50;45.30
32394;DHT22;18853;45.426;9.206;2023-11-21T14:12:50;21.50;45.30
32394;DHT22;18853;45.426;9.206;2023-11-21T14:15:15;21.60;45.40
32394;DHT22;18853;45.426;9.206;2023-11-21T14:17:44;21.60;45.50
32394;DHT22;18853;45.426;9.206;2023-11-21T14:20:10;21.60;45.40
32394;DHT22;18853;45.426;9.206;2023-11-21T14:22:41;21.60;45.30
32394;DHT22;18853;45.426;9.206;2023-11-21T14:25:07;21.60;45.20
32394;DHT22;18853;45.426;9.206;2023-11-21T14:27:33;21.50;45.00
32394;DHT22;18853;45.426;9.206;2023-11-21T14:29:59;21.50;45.10
32394;DHT22;18853;45.426;9.206;2023-11-21T14:32:25;21.50;45.20
32394;DHT22;18853;45.426;9.206;2023-11-21T14:34:51;21.50;45.20
32394;DHT22;18853;45.426;9.206;2023-11-21T14:37:17;21.50;45.30
32394;DHT22;18853;45.426;9.206;2023-11-21T14:39:43;21.40;45.20
32394;DHT22;18853;45.426;9.206;2023-11-21T14:42:15;21.30;45.30
32394;DHT22;18853;45.426;9.206;2023-11-21T14:44:41;21.20;45.40
32394;DHT22;18853;45.426;9.206;2023-11-21T14:47:07;21.10;45.50
32394;DHT22;18853;45.426;9.206;2023-11-21T14:49:43;21.00;45.70
32394;DHT22;18853;45.426;9.206;2023-11-21T14:52:21;20.90;46.10
32394;DHT22;18853;45.426;9.206;2023-11-21T14:55:02;20.60;46.60
32394;DHT22;18853;45.426;9.206;2023-11-21T14:57:46;20.40;46.90
32394;DHT22;18853;45.426;9.206;2023-11-21T15:00:16;20.20;47.30
32394;DHT22;18853;45.426;9.206;2023-11-21T15:03:03;20.10;47.70
32394;DHT22;18853;45.426;9.206;2023-11-21T15:05:30;19.90;48.20
32394;DHT22;18853;45.426;9.206;2023-11-21T15:07:56;19.70;48.60
32394;DHT22;18853;45.426;9.206;2023-11-21T15:10:33;19.60;48.90
32394;DHT22;18853;45.426;9.206;2023-11-21T15:13:25;19.40;49.30
32394;DHT22;18853;45.426;9.206;2023-11-21T15:15:53;19.20;49.80
32394;DHT22;18853;45.426;9.206;2023-11-21T15:18:25;19.10;50.00
32394;DHT22;18853;45.426;9.206;2023-11-21T15:20:52;19.00;50.20
32394;DHT22;18853;45.426;9.206;2023-11-21T15:23:17;19.00;50.40
32394;DHT22;18853;45.426;9.206;2023-11-21T15:25:45;18.90;50.60
32394;DHT22;18853;45.426;9.206;2023-11-21T15:28:10;18.80;50.70
32394;DHT22;18853;45.426;9.206;2023-11-21T15:30:36;18.70;51.00
32394;DHT22;18853;45.426;9.206;2023-11-21T15:33:02;18.70;51.30
32394;DHT22;18853;45.426;9.206;2023-11-21T15:35:29;18.50;51.40
32394;DHT22;18853;45.426;9.206;2023-11-21T15:37:54;18.50;51.60
32394;DHT22;18853;45.426;9.206;2023-11-21T15:40:24;18.50;51.70
32394;DHT22;18853;45.426;9.206;2023-11-21T15:42:50;18.40;51.80
32394;DHT22;18853;45.426;9.206;2023-11-21T15:45:16;18.30;52.00
32394;DHT22;18853;45.426;9.206;2023-11-21T15:47:44;18.30;52.00
32394;DHT22;18853;45.426;9.206;2023-11-21T15:50:10;18.30;52.00